createdAt,value
2022-09-23T00:01:37.686Z,19.90
2022-09-23T00:04:04.096Z,20.88
2022-09-23T00:06:30.470Z,17.95
2022-09-23T00:08:56.837Z,16.27
2022-09-23T00:11:26.397Z,21.02
2022-09-23T00:13:55.806Z,17.08
2022-09-23T00:16:25.835Z,17.73
2022-09-23T00:18:52.443Z,15.63
2022-09-23T00:21:20.398Z,17.37
2022-09-23T00:23:47.156Z,17.33
2022-09-23T00:26:15.539Z,18.73
2022-09-23T00:28:42.354Z,17.38
2022-09-23T00:31:30.875Z,17.33
2022-09-23T00:33:59.988Z,16.63
2022-09-23T00:36:28.055Z,17.02
2022-09-23T00:38:54.498Z,19.17
2022-09-23T00:41:21.554Z,15.70
2022-09-23T00:43:55.539Z,19.98
2022-09-23T00:46:26.610Z,16.33
2022-09-23T00:48:59.858Z,18.27
2022-09-23T00:51:33.354Z,16.88
2022-09-23T00:54:02.043Z,15.70
2022-09-23T00:56:30.594Z,18.60
2022-09-23T00:58:57.169Z,18.57
2022-09-23T01:01:25.469Z,18.92
2022-09-23T01:03:53.572Z,17.98
2022-09-23T01:06:20.513Z,19.48
2022-09-23T01:08:47.852Z,18.77
2022-09-23T01:11:18.732Z,17.73
2022-09-23T01:14:12.994Z,17.50
2022-09-23T01:17:00.288Z,18.98
2022-09-23T01:20:14.910Z,19.30
2022-09-23T01:22:58.699Z,17.50
2022-09-23T01:25:49.285Z,21.00
2022-09-23T01:28:37.174Z,18.60
2022-09-23T01:31:15.095Z,19.80
2022-09-23T01:33:54.347Z,19.70
2022-09-23T01:36:34.056Z,17.67
2022-09-23T01:39:22.506Z,17.90
2022-09-23T01:42:01.100Z,18.65
2022-09-23T01:44:30.598Z,19.25
2022-09-23T01:47:05.750Z,19.75
2022-09-23T01:49:58.507Z,19.25
2022-09-23T01:52:36.060Z,21.13
2022-09-23T01:55:10.776Z,20.70
2022-09-23T01:58:00.984Z,19.73
2022-09-23T02:00:33.586Z,20.20
2022-09-23T02:03:35.195Z,19.83
2022-09-23T02:06:09.521Z,20.57
2022-09-23T02:08:41.586Z,20.13
2022-09-23T02:11:11.628Z,18.35
2022-09-23T02:13:41.538Z,18.20
2022-09-23T02:16:19.352Z,17.13
2022-09-23T02:19:27.486Z,17.90
2022-09-23T02:22:06.836Z,19.35
2022-09-23T02:24:36.261Z,18.38
2022-09-23T02:27:29.380Z,18.48
2022-09-23T02:30:26.622Z,17.95
2022-09-23T02:33:04.576Z,17.50
2022-09-23T02:35:48.892Z,19.10
2022-09-23T02:38:58.004Z,18.15
2022-09-23T02:41:33.267Z,17.65
2022-09-23T02:44:02.616Z,17.98
2022-09-23T02:46:29.740Z,18.40
2022-09-23T02:49:04.336Z,16.70
2022-09-23T02:51:31.788Z,16.98
2022-09-23T02:53:58.779Z,17.10
2022-09-23T02:56:25.199Z,15.80
2022-09-23T02:58:53.933Z,17.00
2022-09-23T03:01:35.657Z,16.15
2022-09-23T03:04:16.165Z,19.92
2022-09-23T03:06:54.707Z,16.00
2022-09-23T03:10:22.696Z,16.25
2022-09-23T03:13:19.387Z,15.23
2022-09-23T03:16:00.028Z,15.65
2022-09-23T03:18:32.698Z,16.80
2022-09-23T03:21:05.071Z,17.40
2022-09-23T03:23:35.236Z,17.70
2022-09-23T03:26:08.436Z,15.80
2022-09-23T03:28:36.923Z,15.85
2022-09-23T03:31:04.976Z,17.08
2022-09-23T03:33:32.855Z,16.02
2022-09-23T03:36:06.987Z,17.92
2022-09-23T03:38:39.138Z,18.17
2022-09-23T03:41:06.647Z,16.98
2022-09-23T03:43:37.988Z,16.92
2022-09-23T03:46:05.582Z,16.85
2022-09-23T03:48:32.033Z,15.23
2022-09-23T03:50:58.754Z,18.23
2022-09-23T03:53:25.241Z,16.77
2022-09-23T03:55:51.679Z,15.98
2022-09-23T03:58:18.111Z,15.93
2022-09-23T04:00:44.656Z,16.08
2022-09-23T04:03:12.047Z,19.90
2022-09-23T04:05:38.660Z,16.02
2022-09-23T04:08:05.097Z,16.70
2022-09-23T04:10:31.561Z,16.15
2022-09-23T04:12:57.975Z,16.45
2022-09-23T04:15:24.377Z,19.47
2022-09-23T04:17:50.769Z,16.70
2022-09-23T04:20:17.147Z,18.00
2022-09-23T04:22:43.577Z,16.48
2022-09-23T04:25:09.996Z,17.73
2022-09-23T04:27:37.944Z,16.57
2022-09-23T04:30:04.864Z,16.92
2022-09-23T04:32:31.289Z,16.60
2022-09-23T04:34:57.729Z,17.70
2022-09-23T04:37:24.098Z,19.75
2022-09-23T04:39:50.495Z,17.00
2022-09-23T04:42:16.913Z,16.60
2022-09-23T04:44:43.324Z,18.70
2022-09-23T04:47:09.720Z,17.30
2022-09-23T04:49:36.117Z,16.77
2022-09-23T04:52:02.636Z,16.37
2022-09-23T04:54:29.217Z,17.52
2022-09-23T04:56:55.633Z,16.52
2022-09-23T04:59:22.046Z,16.23
2022-09-23T05:01:48.586Z,18.50
2022-09-23T05:04:15.050Z,17.83
2022-09-23T05:06:41.811Z,18.67
2022-09-23T05:09:08.895Z,17.65
2022-09-23T05:11:35.862Z,18.42
2022-09-23T05:14:02.895Z,18.60
2022-09-23T05:16:29.477Z,17.70
2022-09-23T05:18:56.113Z,18.40
2022-09-23T05:21:24.568Z,18.38
2022-09-23T05:23:53.785Z,18.98
2022-09-23T05:26:21.953Z,20.25
2022-09-23T05:28:48.572Z,17.37
2022-09-23T05:31:20.339Z,19.48
2022-09-23T05:33:52.814Z,20.35
2022-09-23T05:36:20.832Z,19.25
2022-09-23T05:38:48.616Z,19.00
2022-09-23T05:41:15.803Z,19.60
2022-09-23T05:43:42.259Z,20.95
2022-09-23T05:46:13.283Z,20.33
2022-09-23T05:48:41.634Z,19.77
2022-09-23T05:51:10.392Z,19.23
2022-09-23T05:53:37.348Z,20.33
2022-09-23T05:58:31.193Z,18.95
2022-09-23T06:00:58.270Z,19.67
2022-09-23T06:03:26.027Z,18.08
2022-09-23T06:05:54.226Z,22.00
2022-09-23T06:08:21.532Z,22.00
2022-09-23T06:10:53.550Z,22.58
2022-09-23T06:13:20.890Z,25.45
2022-09-23T06:15:47.342Z,33.83
2022-09-23T06:18:13.785Z,37.37
2022-09-23T06:20:40.196Z,39.00
2022-09-23T06:23:10.537Z,45.00
2022-09-23T06:25:38.129Z,41.10
2022-09-23T06:28:05.418Z,37.38
2022-09-23T06:30:31.802Z,39.53
2022-09-23T06:32:58.195Z,37.28
2022-09-23T06:35:27.842Z,35.60
2022-09-23T06:37:54.853Z,33.38
2022-09-23T06:40:22.066Z,32.70
2022-09-23T06:42:52.302Z,30.47
2022-09-23T06:45:18.876Z,29.88
2022-09-23T06:47:45.286Z,24.90
2022-09-23T06:50:11.807Z,28.65
2022-09-23T06:52:38.935Z,26.42
2022-09-23T06:55:06.032Z,22.67
2022-09-23T06:57:33.181Z,26.38
2022-09-23T06:59:59.760Z,23.08
2022-09-23T07:02:26.870Z,21.42
2022-09-23T07:04:53.525Z,24.65
2022-09-23T07:07:19.908Z,24.43
2022-09-23T07:09:46.308Z,18.85
2022-09-23T07:12:12.717Z,20.67
2022-09-23T07:14:39.143Z,24.95
2022-09-23T07:17:05.565Z,21.00
2022-09-23T07:19:32.030Z,20.93
2022-09-23T07:21:58.445Z,23.52
2022-09-23T07:24:24.865Z,19.60
2022-09-23T07:26:51.331Z,21.98
2022-09-23T07:29:17.741Z,22.40
2022-09-23T07:31:44.200Z,20.23
2022-09-23T07:34:11.032Z,22.65
2022-09-23T07:36:38.461Z,21.65
2022-09-23T07:39:05.108Z,20.75
2022-09-23T07:41:33.016Z,21.48
2022-09-23T07:43:59.958Z,20.67
2022-09-23T07:46:28.120Z,21.10
2022-09-23T07:48:54.637Z,20.33
2022-09-23T07:51:29.844Z,22.08
2022-09-23T07:53:58.646Z,21.55
2022-09-23T07:56:27.090Z,18.33
2022-09-23T07:58:54.049Z,21.63
2022-09-23T08:01:20.507Z,19.88
2022-09-23T08:03:46.966Z,19.90
2022-09-23T08:06:13.715Z,21.10
2022-09-23T08:08:41.143Z,19.30
2022-09-23T08:11:09.725Z,19.05
2022-09-23T08:13:36.153Z,19.83
2022-09-23T08:16:02.720Z,18.52
2022-09-23T08:18:29.257Z,21.20
2022-09-23T08:20:55.677Z,18.17
2022-09-23T08:23:22.114Z,19.80
2022-09-23T08:25:48.614Z,17.75
2022-09-23T08:28:16.463Z,17.80
2022-09-23T08:30:48.752Z,19.70
2022-09-23T08:33:19.667Z,18.53
2022-09-23T08:35:49.216Z,17.58
2022-09-23T08:38:16.097Z,19.40
2022-09-23T08:40:46.609Z,19.90
2022-09-23T08:43:34.607Z,18.08
2022-09-23T08:46:05.719Z,16.40
2022-09-23T08:48:47.034Z,20.20
2022-09-23T08:51:17.199Z,14.68
2022-09-23T08:53:43.760Z,14.93
2022-09-23T08:56:14.828Z,15.50
2022-09-23T08:58:49.664Z,15.57
2022-09-23T09:01:37.542Z,17.95
2022-09-23T09:04:12.710Z,14.68
2022-09-23T09:06:53.030Z,14.40
2022-09-23T09:09:24.959Z,16.05
2022-09-23T09:11:56.769Z,15.73
2022-09-23T09:14:47.461Z,14.75
2022-09-23T09:17:26.183Z,14.50
2022-09-23T09:19:55.493Z,19.30
2022-09-23T09:22:53.982Z,15.98
2022-09-23T09:25:23.570Z,15.53
2022-09-23T09:27:51.500Z,16.70
2022-09-23T09:30:19.356Z,15.68
2022-09-23T09:32:48.256Z,14.98
2022-09-23T09:35:36.539Z,18.02
2022-09-23T09:38:03.755Z,15.83
2022-09-23T09:40:30.186Z,15.82
2022-09-23T09:42:56.676Z,14.23
2022-09-23T09:45:23.004Z,17.10
2022-09-23T09:48:14.421Z,14.90
2022-09-23T09:50:52.305Z,15.63
2022-09-23T09:53:27.508Z,15.27
2022-09-23T09:56:06.984Z,14.07
2022-09-23T09:58:39.555Z,13.05
2022-09-23T10:01:06.227Z,17.30
2022-09-23T10:03:39.069Z,14.07
2022-09-23T10:06:29.681Z,12.98
2022-09-23T10:09:02.271Z,13.20
2022-09-23T10:11:29.756Z,12.57
2022-09-23T10:14:16.331Z,12.43
2022-09-23T10:16:43.377Z,14.70
2022-09-23T10:19:35.004Z,13.32
2022-09-23T10:22:09.731Z,14.75
2022-09-23T10:24:36.204Z,12.10
2022-09-23T10:27:10.480Z,14.70
2022-09-23T10:29:40.800Z,13.40
2022-09-23T10:32:26.801Z,14.43
2022-09-23T10:35:22.415Z,15.48
2022-09-23T10:37:53.929Z,13.88
2022-09-23T10:40:31.982Z,14.75
2022-09-23T10:43:05.611Z,15.10
2022-09-23T10:45:42.594Z,16.67
2022-09-23T10:48:12.853Z,15.05
2022-09-23T10:50:50.301Z,13.90
2022-09-23T10:53:34.422Z,16.42
2022-09-23T10:56:35.381Z,17.53
2022-09-23T10:59:10.918Z,14.80
2022-09-23T11:02:39.195Z,16.13
2022-09-23T11:05:24.067Z,16.95
2022-09-23T11:08:18.326Z,14.85
2022-09-23T11:10:47.872Z,15.27
2022-09-23T11:13:43.950Z,14.75
2022-09-23T11:16:19.709Z,13.93
2022-09-23T11:18:55.028Z,16.95
2022-09-23T11:21:38.372Z,15.27
2022-09-23T11:24:23.988Z,16.53
2022-09-23T11:27:08.442Z,16.48
2022-09-23T11:29:49.812Z,15.13
2022-09-23T11:32:34.977Z,16.00
2022-09-23T11:35:26.605Z,13.43
2022-09-23T11:38:01.224Z,13.90
2022-09-23T11:40:32.019Z,17.13
2022-09-23T11:43:14.164Z,16.17
2022-09-23T11:45:47.826Z,15.23
2022-09-23T11:48:27.299Z,17.17
2022-09-23T11:51:02.033Z,16.13
2022-09-23T11:53:48.422Z,15.00
2022-09-23T11:56:32.060Z,16.27
2022-09-23T11:59:14.170Z,14.02
2022-09-23T12:01:56.775Z,17.85
2022-09-23T12:04:33.524Z,15.17
2022-09-23T12:07:12.624Z,15.93
2022-09-23T12:10:01.057Z,14.60
2022-09-23T12:12:39.873Z,15.35
2022-09-23T12:15:31.113Z,12.77
2022-09-23T12:18:06.769Z,14.40
2022-09-23T12:20:39.413Z,12.30
2022-09-23T12:23:24.244Z,15.38
2022-09-23T12:26:00.377Z,15.75
2022-09-23T12:28:32.699Z,23.15
2022-09-23T12:31:02.249Z,37.03
2022-09-23T12:33:35.718Z,37.75
2022-09-23T12:36:08.226Z,24.95
2022-09-23T12:38:52.036Z,14.73
2022-09-23T12:41:32.931Z,12.95
2022-09-23T12:44:12.578Z,36.90
2022-09-23T12:46:45.935Z,15.75
2022-09-23T12:49:27.324Z,23.90
2022-09-23T12:52:12.094Z,16.73
2022-09-23T12:54:40.139Z,18.20
2022-09-23T12:57:11.687Z,24.37
2022-09-23T12:59:58.212Z,36.85
2022-09-23T13:02:29.959Z,25.40
2022-09-23T13:05:03.408Z,18.30
2022-09-23T13:07:32.723Z,32.60
2022-09-23T13:10:13.534Z,15.43
2022-09-23T13:12:43.572Z,14.25
2022-09-23T13:15:36.346Z,16.90
2022-09-23T13:18:20.902Z,15.02
2022-09-23T13:20:48.965Z,25.65
2022-09-23T13:23:29.642Z,19.93
2022-09-23T13:25:59.270Z,18.42
2022-09-23T13:28:55.973Z,17.20
2022-09-23T13:31:22.497Z,14.40
2022-09-23T13:33:56.523Z,22.33
2022-09-23T13:36:22.988Z,31.60
2022-09-23T13:38:49.412Z,16.90
2022-09-23T13:41:21.786Z,40.03
2022-09-23T13:43:51.793Z,24.55
2022-09-23T13:46:22.654Z,15.18
2022-09-23T13:48:52.635Z,15.83
2022-09-23T13:51:24.645Z,18.50
2022-09-23T13:53:55.433Z,17.58
2022-09-23T13:56:23.185Z,16.92
2022-09-23T13:58:49.725Z,16.70
2022-09-23T14:01:21.570Z,17.03
2022-09-23T14:03:48.084Z,18.17
2022-09-23T14:06:15.427Z,17.48
2022-09-23T14:08:46.166Z,16.08
2022-09-23T14:11:21.423Z,17.15
2022-09-23T14:13:50.810Z,18.67
2022-09-23T14:16:17.975Z,16.30
2022-09-23T14:18:46.769Z,18.88
2022-09-23T14:21:27.441Z,15.10
2022-09-23T14:23:54.207Z,16.75
2022-09-23T14:26:23.177Z,18.20
2022-09-23T14:28:50.137Z,22.42
2022-09-23T14:31:16.823Z,17.05
2022-09-23T14:33:43.565Z,17.80
2022-09-23T14:36:14.380Z,20.48
2022-09-23T14:38:40.821Z,17.27
2022-09-23T14:41:16.279Z,17.83
2022-09-23T14:44:03.443Z,16.05
2022-09-23T14:46:32.519Z,17.55
2022-09-23T14:49:25.297Z,17.67
2022-09-23T14:51:58.250Z,17.77
2022-09-23T14:54:39.967Z,18.23
2022-09-23T14:57:30.580Z,17.63
2022-09-23T15:00:01.383Z,16.80
2022-09-23T15:02:31.674Z,17.55
2022-09-23T15:05:21.753Z,20.03
2022-09-23T15:07:51.272Z,17.67
2022-09-23T15:10:22.110Z,18.35
2022-09-23T15:12:48.689Z,18.23
2022-09-23T15:15:16.685Z,19.25
2022-09-23T15:17:44.256Z,21.63
2022-09-23T15:20:16.864Z,19.45
2022-09-23T15:22:48.396Z,18.58
2022-09-23T15:25:16.548Z,18.85
2022-09-23T15:27:55.697Z,18.25
2022-09-23T15:30:22.295Z,18.27
2022-09-23T15:32:48.713Z,20.42
2022-09-23T15:35:20.990Z,22.63
2022-09-23T15:37:49.787Z,18.88
2022-09-23T15:40:22.415Z,21.50
2022-09-23T15:42:50.010Z,22.10
2022-09-23T15:45:16.430Z,20.05
2022-09-23T15:47:42.845Z,25.98
2022-09-23T15:50:12.069Z,23.08
2022-09-23T15:52:38.545Z,20.02
2022-09-23T15:55:16.589Z,27.07
2022-09-23T15:57:43.059Z,22.45
2022-09-23T16:00:12.361Z,23.60
2022-09-23T16:02:39.659Z,23.02
2022-09-23T16:05:06.359Z,22.80
2022-09-23T16:07:32.745Z,24.47
2022-09-23T16:09:59.189Z,26.20
2022-09-23T16:12:25.717Z,26.13
2022-09-23T16:14:52.152Z,24.58
2022-09-23T16:17:18.578Z,25.88
2022-09-23T16:19:44.982Z,27.07
2022-09-23T16:22:15.356Z,26.80
2022-09-23T16:24:41.869Z,25.70
2022-09-23T16:27:12.328Z,26.38
2022-09-23T16:29:38.732Z,26.45
2022-09-23T16:32:05.241Z,24.80
2022-09-23T16:34:31.747Z,26.23
2022-09-23T16:36:58.191Z,25.85
2022-09-23T16:39:24.568Z,29.15
2022-09-23T16:41:51.058Z,29.30
2022-09-23T16:44:17.586Z,29.97
2022-09-23T16:46:44.012Z,25.85
2022-09-23T16:49:10.603Z,27.58
2022-09-23T16:51:37.070Z,28.27
2022-09-23T16:54:09.613Z,28.02
2022-09-23T16:56:37.988Z,28.07
2022-09-23T16:59:05.023Z,29.42
2022-09-23T17:01:31.997Z,27.23
2022-09-23T17:03:58.537Z,29.42
2022-09-23T17:06:25.347Z,32.22
2022-09-23T17:08:51.753Z,30.17
2022-09-23T17:11:18.201Z,32.30
2022-09-23T17:13:44.898Z,34.08
2022-09-23T17:16:21.698Z,34.38
2022-09-23T17:18:48.171Z,33.65
2022-09-23T17:21:14.564Z,35.67
2022-09-23T17:23:41.037Z,35.33
2022-09-23T17:26:07.496Z,36.63
2022-09-23T17:28:33.878Z,40.15
2022-09-23T17:31:02.862Z,41.38
2022-09-23T17:33:31.611Z,34.90
2022-09-23T17:35:58.208Z,39.05
2022-09-23T17:38:28.924Z,37.70
2022-09-23T17:40:57.781Z,35.95
2022-09-23T17:43:24.181Z,35.83
2022-09-23T17:45:55.964Z,33.67
2022-09-23T17:48:24.080Z,33.15
2022-09-23T17:50:57.539Z,34.35
2022-09-23T17:53:24.772Z,33.80
2022-09-23T17:56:03.765Z,34.92
2022-09-23T17:58:33.203Z,39.13
2022-09-23T18:00:59.746Z,35.63
2022-09-23T18:03:28.383Z,39.08
2022-09-23T18:05:55.424Z,33.05
2022-09-23T18:08:21.897Z,40.63
2022-09-23T18:10:48.331Z,36.30
2022-09-23T18:13:14.763Z,37.10
2022-09-23T18:15:41.216Z,37.13
2022-09-23T18:18:07.743Z,35.60
2022-09-23T18:20:34.302Z,39.70
2022-09-23T18:23:00.747Z,38.23
2022-09-23T18:25:38.574Z,42.15
2022-09-23T18:28:05.832Z,41.60
2022-09-23T18:30:32.261Z,37.42
2022-09-23T18:32:59.607Z,38.85
2022-09-23T18:35:25.978Z,37.70
2022-09-23T18:37:52.411Z,36.33
2022-09-23T18:40:18.885Z,38.80
2022-09-23T18:42:45.373Z,36.50
2022-09-23T18:45:11.838Z,38.00
2022-09-23T18:47:38.772Z,34.43
2022-09-23T18:50:05.863Z,34.15
2022-09-23T18:52:32.257Z,34.60
2022-09-23T18:54:58.663Z,34.67
2022-09-23T18:57:25.104Z,35.35
2022-09-23T18:59:51.493Z,39.40
2022-09-23T19:02:17.966Z,41.53
2022-09-23T19:04:44.433Z,42.67
2022-09-23T19:07:10.868Z,37.53
2022-09-23T19:09:37.281Z,64.65
2022-09-23T19:12:03.893Z,39.60
2022-09-23T19:14:30.274Z,41.10
2022-09-23T19:16:56.700Z,39.85
2022-09-23T19:19:23.106Z,36.08
2022-09-23T19:21:49.526Z,38.88
2022-09-23T19:24:16.272Z,35.83
2022-09-23T19:26:43.950Z,36.67
2022-09-23T19:29:16.411Z,39.33
2022-09-23T19:31:43.389Z,38.35
2022-09-23T19:34:18.096Z,40.20
2022-09-23T19:36:46.675Z,34.93
2022-09-23T19:39:22.940Z,37.38
2022-09-23T19:41:50.906Z,37.33
2022-09-23T19:44:17.428Z,34.40
2022-09-23T19:46:46.330Z,37.30
2022-09-23T19:49:13.062Z,36.77
2022-09-23T19:51:39.773Z,40.90
2022-09-23T19:54:07.410Z,35.35
2022-09-23T19:56:34.645Z,34.67
2022-09-23T19:59:01.323Z,34.38
2022-09-23T20:01:29.152Z,35.73
2022-09-23T20:03:56.062Z,34.72
2022-09-23T20:06:22.753Z,33.63
2022-09-23T20:08:49.966Z,32.75
2022-09-23T20:11:19.410Z,37.00
2022-09-23T20:13:47.091Z,34.90
2022-09-23T20:16:16.092Z,36.88
2022-09-23T20:18:43.167Z,36.67
2022-09-23T20:21:12.197Z,35.35
2022-09-23T20:23:38.937Z,35.92
2022-09-23T20:26:06.260Z,32.97
2022-09-23T20:28:32.687Z,34.58
2022-09-23T20:30:59.150Z,34.42
2022-09-23T20:33:25.577Z,33.15
2022-09-23T20:35:51.979Z,31.40
2022-09-23T20:38:18.336Z,32.50
2022-09-23T20:40:44.838Z,30.35
2022-09-23T20:43:11.326Z,30.58
2022-09-23T20:45:37.714Z,30.70
2022-09-23T20:48:04.304Z,28.15
2022-09-23T20:50:30.682Z,30.10
2022-09-23T20:52:57.123Z,25.45
2022-09-23T20:55:23.717Z,24.58
2022-09-23T20:57:50.189Z,24.63
2022-09-23T21:00:16.642Z,24.55
2022-09-23T21:02:44.077Z,26.37
2022-09-23T21:05:10.510Z,27.80
2022-09-23T21:07:36.911Z,27.63
2022-09-23T21:10:03.615Z,30.50
2022-09-23T21:12:30.095Z,29.55
2022-09-23T21:14:56.583Z,30.90
2022-09-23T21:17:23.000Z,30.45
2022-09-23T21:19:49.407Z,31.20
2022-09-23T21:22:15.803Z,32.38
2022-09-23T21:27:28.619Z,34.20
2022-09-23T21:29:55.049Z,33.63
2022-09-23T21:32:21.435Z,33.67
2022-09-23T21:34:47.883Z,30.52
2022-09-23T21:37:14.428Z,31.63
2022-09-23T21:39:40.866Z,30.97
2022-09-23T21:42:07.294Z,29.95
2022-09-23T21:44:33.690Z,32.67
2022-09-23T21:47:00.188Z,32.63
2022-09-23T21:49:26.677Z,31.45
2022-09-23T21:51:53.097Z,32.60
2022-09-23T21:54:19.503Z,31.77
2022-09-23T21:56:46.048Z,31.27
2022-09-23T21:59:12.554Z,31.30
2022-09-23T22:01:41.821Z,31.70
2022-09-23T22:04:15.282Z,34.73
2022-09-23T22:06:41.863Z,32.88
2022-09-23T22:09:12.658Z,36.20
2022-09-23T22:11:40.143Z,35.25
2022-09-23T22:14:09.253Z,36.05
2022-09-23T22:16:35.797Z,34.23
2022-09-23T22:19:03.231Z,37.53
2022-09-23T22:21:30.216Z,37.65
2022-09-23T22:23:58.749Z,39.40
2022-09-23T22:26:25.181Z,46.42
2022-09-23T22:28:51.582Z,41.43
2022-09-23T22:31:18.042Z,44.42
2022-09-23T22:33:44.496Z,43.40
2022-09-23T22:36:10.940Z,43.67
2022-09-23T22:38:37.809Z,46.03
2022-09-23T22:41:04.330Z,49.37
2022-09-23T22:43:32.920Z,49.72
2022-09-23T22:45:59.287Z,51.92
2022-09-23T22:48:25.706Z,56.83
2022-09-23T22:50:52.082Z,57.95
2022-09-23T22:53:18.475Z,59.30
2022-09-23T22:55:44.866Z,56.42
2022-09-23T22:58:31.286Z,59.22
2022-09-23T23:00:58.413Z,53.90
2022-09-23T23:03:25.385Z,52.38
2022-09-23T23:05:52.583Z,53.27
2022-09-23T23:08:18.951Z,47.20
2022-09-23T23:10:45.352Z,44.78
2022-09-23T23:13:11.763Z,47.65
2022-09-23T23:15:38.951Z,43.20
2022-09-23T23:18:05.634Z,43.60
2022-09-23T23:20:32.112Z,41.75
2022-09-23T23:23:01.307Z,37.97
2022-09-23T23:25:28.431Z,37.47
2022-09-23T23:27:55.232Z,36.60
2022-09-23T23:30:25.520Z,36.83
2022-09-23T23:32:51.952Z,36.17
2022-09-23T23:35:18.389Z,34.10
2022-09-23T23:37:44.868Z,37.38
2022-09-23T23:40:11.559Z,31.83
2022-09-23T23:42:37.981Z,34.20
2022-09-23T23:45:04.881Z,32.88
2022-09-23T23:47:31.261Z,34.47
2022-09-23T23:49:57.705Z,33.65
2022-09-23T23:52:24.152Z,33.70
2022-09-23T23:54:50.597Z,33.17
2022-09-23T23:57:16.992Z,33.72
2022-09-23T23:59:43.389Z,35.03
